createdAt,value
2023-01-29T00:01:56.212Z,38.05
2023-01-29T00:04:23.340Z,40.28
2023-01-29T00:06:50.446Z,34.03
2023-01-29T00:09:17.302Z,39.08
2023-01-29T00:11:44.957Z,41.33
2023-01-29T00:14:11.844Z,41.58
2023-01-29T00:16:38.972Z,38.75
2023-01-29T00:19:05.771Z,40.58
2023-01-29T00:21:32.809Z,34.47
2023-01-29T00:24:00.266Z,35.28
2023-01-29T00:26:27.818Z,37.85
2023-01-29T00:28:57.056Z,38.78
2023-01-29T00:31:25.992Z,37.22
2023-01-29T00:33:53.000Z,37.45
2023-01-29T00:36:22.090Z,40.30
2023-01-29T00:39:10.545Z,38.20
2023-01-29T00:41:56.329Z,33.58
2023-01-29T00:44:42.373Z,39.30
2023-01-29T00:47:29.429Z,38.47
2023-01-29T00:49:56.912Z,43.78
2023-01-29T00:52:24.113Z,37.70
2023-01-29T00:54:58.618Z,35.95
2023-01-29T00:57:27.939Z,44.97
2023-01-29T00:59:54.744Z,44.47
2023-01-29T01:02:41.057Z,38.85
2023-01-29T01:05:14.035Z,30.08
2023-01-29T01:07:41.356Z,35.40
2023-01-29T01:10:22.221Z,44.60
2023-01-29T01:12:56.699Z,37.35
2023-01-29T01:15:25.308Z,36.78
2023-01-29T01:17:57.699Z,41.97
2023-01-29T01:20:26.708Z,33.53
2023-01-29T01:22:54.795Z,41.90
2023-01-29T01:25:23.848Z,38.05
2023-01-29T01:27:55.946Z,44.35
2023-01-29T01:30:24.479Z,39.60
2023-01-29T01:32:51.746Z,38.92
2023-01-29T01:35:18.673Z,42.25
2023-01-29T01:37:45.777Z,40.00
2023-01-29T01:40:19.584Z,39.72
2023-01-29T01:42:52.075Z,46.83
2023-01-29T01:45:28.421Z,41.75
2023-01-29T01:48:13.097Z,35.33
2023-01-29T01:50:43.115Z,38.88
2023-01-29T01:53:13.712Z,39.53
2023-01-29T01:55:49.784Z,37.45
2023-01-29T01:58:27.168Z,46.65
2023-01-29T02:00:55.133Z,34.00
2023-01-29T02:03:43.220Z,40.72
2023-01-29T02:06:29.520Z,42.17
2023-01-29T02:09:23.607Z,46.00
2023-01-29T02:11:51.619Z,34.30
2023-01-29T02:14:18.976Z,37.90
2023-01-29T02:16:45.798Z,41.05
2023-01-29T02:19:30.726Z,41.45
2023-01-29T02:22:25.915Z,41.35
2023-01-29T02:24:59.216Z,35.58
2023-01-29T02:27:41.449Z,41.17
2023-01-29T02:30:23.337Z,33.72
2023-01-29T02:33:22.270Z,37.42
2023-01-29T02:36:18.544Z,38.80
2023-01-29T02:39:01.906Z,33.60
2023-01-29T02:41:37.718Z,34.72
2023-01-29T02:44:30.468Z,34.97
2023-01-29T02:47:04.123Z,35.05
2023-01-29T02:49:36.119Z,34.58
2023-01-29T02:52:11.901Z,37.00
2023-01-29T02:54:51.790Z,29.63
2023-01-29T02:57:18.845Z,29.38
2023-01-29T02:59:59.485Z,34.05
2023-01-29T03:02:44.062Z,34.83
2023-01-29T03:05:17.670Z,34.80
2023-01-29T03:07:52.040Z,35.33
2023-01-29T03:10:26.849Z,33.42
2023-01-29T03:13:14.757Z,32.53
2023-01-29T03:15:51.276Z,32.50
2023-01-29T03:18:22.518Z,34.58
2023-01-29T03:20:58.443Z,32.10
2023-01-29T03:23:52.337Z,31.38
2023-01-29T03:26:41.371Z,37.72
2023-01-29T03:29:30.881Z,30.67
2023-01-29T03:32:05.627Z,31.30
2023-01-29T03:34:43.756Z,29.85
2023-01-29T03:37:22.441Z,30.60
2023-01-29T03:39:49.736Z,32.88
2023-01-29T03:42:29.771Z,30.45
2023-01-29T03:45:26.369Z,38.65
2023-01-29T03:48:08.028Z,30.55
2023-01-29T03:50:59.320Z,26.52
2023-01-29T03:53:49.137Z,33.33
2023-01-29T03:56:16.156Z,35.55
2023-01-29T03:58:52.968Z,33.95
2023-01-29T04:01:25.836Z,31.95
2023-01-29T04:03:58.071Z,37.22
2023-01-29T04:06:33.173Z,26.20
2023-01-29T04:09:07.423Z,31.67
2023-01-29T04:11:40.077Z,22.23
2023-01-29T04:14:07.542Z,26.38
2023-01-29T04:16:44.044Z,24.33
2023-01-29T04:19:11.992Z,27.88
2023-01-29T04:21:39.674Z,31.52
2023-01-29T04:24:08.065Z,27.63
2023-01-29T04:26:49.476Z,27.73
2023-01-29T04:29:34.196Z,26.08
2023-01-29T04:32:30.225Z,21.98
2023-01-29T04:35:24.161Z,27.17
2023-01-29T04:37:56.877Z,22.80
2023-01-29T04:40:27.586Z,26.00
2023-01-29T04:43:03.357Z,24.35
2023-01-29T04:45:54.387Z,23.52
2023-01-29T04:48:43.652Z,18.85
2023-01-29T04:51:25.124Z,21.48
2023-01-29T04:54:12.240Z,18.65
2023-01-29T04:57:06.326Z,26.42
2023-01-29T05:02:09.879Z,19.67
2023-01-29T05:04:40.174Z,20.00
2023-01-29T05:07:11.881Z,24.58
2023-01-29T05:09:39.494Z,22.58
2023-01-29T05:12:09.266Z,24.27
2023-01-29T05:14:38.924Z,22.90
2023-01-29T05:17:14.243Z,17.85
2023-01-29T05:19:41.836Z,22.75
2023-01-29T05:22:11.472Z,23.80
2023-01-29T05:24:38.654Z,22.67
2023-01-29T05:27:23.955Z,32.90
2023-01-29T05:29:51.017Z,21.63
2023-01-29T05:32:17.799Z,22.92
2023-01-29T05:34:44.821Z,25.70
2023-01-29T05:37:11.627Z,20.73
2023-01-29T05:39:38.707Z,22.30
2023-01-29T05:42:05.505Z,20.20
2023-01-29T05:44:32.736Z,25.33
2023-01-29T05:46:59.597Z,22.15
2023-01-29T05:49:26.664Z,20.83
2023-01-29T05:51:53.468Z,20.73
2023-01-29T05:54:20.490Z,22.50
2023-01-29T05:56:47.312Z,18.30
2023-01-29T05:59:15.519Z,22.75
2023-01-29T06:01:42.336Z,25.38
2023-01-29T06:04:09.397Z,22.52
2023-01-29T06:06:36.193Z,22.52
2023-01-29T06:09:03.582Z,19.48
2023-01-29T06:11:30.362Z,22.50
2023-01-29T06:13:57.735Z,26.23
2023-01-29T06:16:24.555Z,22.67
2023-01-29T06:18:51.630Z,24.42
2023-01-29T06:21:20.049Z,18.67
2023-01-29T06:23:47.270Z,19.33
2023-01-29T06:26:15.283Z,22.52
2023-01-29T06:28:42.848Z,19.67
2023-01-29T06:31:27.393Z,25.13
2023-01-29T06:33:58.747Z,21.83
2023-01-29T06:36:25.533Z,18.58
2023-01-29T06:38:52.607Z,18.77
2023-01-29T06:41:22.764Z,22.20
2023-01-29T06:43:49.812Z,25.05
2023-01-29T06:46:16.668Z,20.65
2023-01-29T06:48:44.000Z,21.30
2023-01-29T06:51:11.289Z,19.88
2023-01-29T06:53:39.528Z,19.65
2023-01-29T06:56:07.787Z,19.75
2023-01-29T06:58:37.258Z,20.67
2023-01-29T07:01:06.107Z,21.38
2023-01-29T07:03:33.111Z,20.67
2023-01-29T07:06:00.605Z,16.80
2023-01-29T07:08:28.442Z,27.95
2023-01-29T07:11:01.786Z,19.88
2023-01-29T07:13:28.723Z,24.92
2023-01-29T07:16:03.131Z,17.33
2023-01-29T07:18:30.993Z,22.98
2023-01-29T07:20:58.349Z,16.20
2023-01-29T07:23:25.362Z,19.17
2023-01-29T07:25:52.530Z,22.25
2023-01-29T07:28:20.655Z,22.67
2023-01-29T07:30:47.881Z,16.92
2023-01-29T07:33:14.731Z,14.93
2023-01-29T07:35:43.459Z,19.73
2023-01-29T07:38:11.589Z,20.20
2023-01-29T07:40:38.639Z,20.13
2023-01-29T07:43:07.279Z,20.33
2023-01-29T07:45:36.721Z,18.02
2023-01-29T07:48:05.200Z,21.10
2023-01-29T07:50:35.955Z,19.83
2023-01-29T07:53:02.925Z,14.52
2023-01-29T07:55:30.450Z,16.70
2023-01-29T07:57:58.735Z,15.32
2023-01-29T08:00:26.460Z,18.98
2023-01-29T08:02:53.261Z,18.60
2023-01-29T08:05:20.644Z,14.93
2023-01-29T08:08:05.685Z,17.42
2023-01-29T08:10:37.710Z,12.95
2023-01-29T08:13:06.152Z,13.90
2023-01-29T08:15:33.730Z,18.27
2023-01-29T08:18:02.303Z,18.02
2023-01-29T08:20:29.588Z,17.48
2023-01-29T08:23:01.184Z,14.70
2023-01-29T08:25:29.262Z,22.58
2023-01-29T08:27:57.929Z,12.05
2023-01-29T08:30:27.012Z,13.10
2023-01-29T08:32:53.811Z,18.25
2023-01-29T08:35:21.478Z,15.20
2023-01-29T08:38:00.320Z,13.43
2023-01-29T08:40:28.806Z,16.67
2023-01-29T08:43:03.974Z,14.50
2023-01-29T08:45:34.203Z,17.33
2023-01-29T08:48:01.437Z,15.32
2023-01-29T08:50:30.665Z,10.52
2023-01-29T08:53:01.801Z,15.60
2023-01-29T08:55:29.608Z,17.10
2023-01-29T08:57:59.294Z,10.20
2023-01-29T09:00:26.086Z,13.07
2023-01-29T09:02:53.152Z,18.05
2023-01-29T09:05:20.454Z,13.52
2023-01-29T09:07:47.671Z,13.90
2023-01-29T09:10:14.496Z,12.52
2023-01-29T09:12:41.519Z,13.57
2023-01-29T09:15:08.926Z,13.13
2023-01-29T09:17:36.011Z,16.80
2023-01-29T09:20:05.284Z,14.63
2023-01-29T09:22:32.339Z,17.98
2023-01-29T09:24:59.465Z,11.75
2023-01-29T09:27:26.617Z,13.38
2023-01-29T09:29:53.751Z,11.95
2023-01-29T09:32:49.893Z,12.05
2023-01-29T09:35:08.080Z,17.52
2023-01-29T09:37:35.220Z,15.35
2023-01-29T09:40:01.977Z,14.18
2023-01-29T09:42:44.311Z,11.88
2023-01-29T09:45:19.448Z,14.20
2023-01-29T09:47:48.808Z,14.95
2023-01-29T09:50:20.528Z,11.07
2023-01-29T09:52:56.898Z,13.65
2023-01-29T09:56:02.707Z,14.30
2023-01-29T09:58:36.238Z,12.93
2023-01-29T10:01:27.901Z,12.23
2023-01-29T10:04:30.805Z,14.82
2023-01-29T10:07:13.081Z,11.27
2023-01-29T10:10:15.473Z,12.07
2023-01-29T10:13:05.518Z,10.68
2023-01-29T10:15:35.168Z,14.20
2023-01-29T10:18:10.775Z,11.35
2023-01-29T10:20:59.302Z,11.63
2023-01-29T10:23:28.759Z,9.63
2023-01-29T10:25:56.595Z,14.30
2023-01-29T10:28:34.489Z,11.20
2023-01-29T10:31:08.478Z,10.73
2023-01-29T10:36:38.448Z,10.63
2023-01-29T10:39:05.384Z,20.58
2023-01-29T10:42:10.148Z,11.48
2023-01-29T10:45:01.684Z,11.40
2023-01-29T10:47:41.086Z,10.23
2023-01-29T10:50:59.137Z,11.60
2023-01-29T10:53:40.236Z,13.07
2023-01-29T10:56:22.985Z,10.95
2023-01-29T10:58:55.757Z,9.60
2023-01-29T11:01:23.032Z,11.40
2023-01-29T11:04:01.275Z,10.43
2023-01-29T11:06:33.624Z,12.52
2023-01-29T11:09:21.769Z,9.40
2023-01-29T11:12:15.441Z,15.27
2023-01-29T11:14:53.345Z,7.82
2023-01-29T11:17:23.480Z,8.55
2023-01-29T11:19:53.041Z,11.30
2023-01-29T11:22:23.281Z,13.68
2023-01-29T11:25:19.146Z,10.32
2023-01-29T11:27:49.406Z,9.55
2023-01-29T11:30:27.909Z,11.40
2023-01-29T11:33:07.419Z,10.95
2023-01-29T11:35:36.483Z,10.25
2023-01-29T11:38:27.621Z,10.63
2023-01-29T11:41:07.227Z,9.68
2023-01-29T11:43:34.040Z,10.75
2023-01-29T11:46:13.525Z,13.55
2023-01-29T11:48:59.049Z,8.38
2023-01-29T11:51:29.804Z,10.07
2023-01-29T11:54:02.355Z,7.65
2023-01-29T11:56:35.729Z,11.47
2023-01-29T11:59:05.947Z,7.63
2023-01-29T12:01:41.217Z,9.60
2023-01-29T12:04:25.958Z,9.25
2023-01-29T12:06:54.600Z,12.90
2023-01-29T12:09:24.980Z,8.02
2023-01-29T12:11:52.657Z,8.48
2023-01-29T12:14:28.545Z,9.50
2023-01-29T12:17:26.385Z,10.20
2023-01-29T12:20:06.524Z,10.13
2023-01-29T12:22:41.167Z,11.60
2023-01-29T12:25:22.221Z,10.15
2023-01-29T12:28:09.546Z,9.80
2023-01-29T12:31:07.371Z,7.70
2023-01-29T12:33:54.700Z,8.20
2023-01-29T12:37:01.625Z,8.18
2023-01-29T12:39:28.765Z,9.13
2023-01-29T12:42:06.653Z,9.40
2023-01-29T12:44:42.452Z,6.85
2023-01-29T12:47:27.848Z,13.00
2023-01-29T12:50:00.649Z,7.82
2023-01-29T12:52:30.267Z,7.63
2023-01-29T12:55:07.052Z,9.40
2023-01-29T12:57:36.804Z,10.60
2023-01-29T13:00:26.053Z,11.45
2023-01-29T13:03:18.342Z,10.52
2023-01-29T13:05:47.810Z,9.65
2023-01-29T13:08:32.082Z,8.70
2023-01-29T13:11:04.557Z,7.82
2023-01-29T13:13:36.847Z,9.98
2023-01-29T13:16:07.587Z,7.60
2023-01-29T13:18:49.072Z,12.70
2023-01-29T13:21:27.431Z,9.32
2023-01-29T13:24:02.812Z,8.73
2023-01-29T13:26:30.893Z,8.38
2023-01-29T13:28:58.394Z,12.45
2023-01-29T13:31:35.377Z,8.65
2023-01-29T13:34:21.812Z,7.75
2023-01-29T13:36:52.383Z,5.43
2023-01-29T13:39:31.937Z,7.07
2023-01-29T13:42:00.996Z,9.55
2023-01-29T13:44:37.796Z,7.88
2023-01-29T13:47:08.671Z,7.97
2023-01-29T13:49:52.986Z,9.23
2023-01-29T13:52:30.847Z,7.90
2023-01-29T13:55:02.104Z,6.65
2023-01-29T13:57:44.235Z,8.10
2023-01-29T14:00:34.007Z,7.68
2023-01-29T14:03:01.056Z,9.32
2023-01-29T14:05:32.126Z,8.45
2023-01-29T14:08:34.264Z,8.27
2023-01-29T14:11:13.352Z,5.80
2023-01-29T14:13:42.040Z,8.15
2023-01-29T14:16:11.540Z,5.65
2023-01-29T14:18:55.448Z,6.43
2023-01-29T14:21:30.525Z,9.00
2023-01-29T14:24:16.811Z,9.43
2023-01-29T14:26:47.385Z,8.18
2023-01-29T14:29:34.411Z,6.50
2023-01-29T14:32:19.706Z,7.93
2023-01-29T14:34:52.065Z,8.02
2023-01-29T14:37:24.971Z,9.85
2023-01-29T14:39:54.724Z,8.00
2023-01-29T14:42:23.783Z,6.85
2023-01-29T14:45:00.454Z,7.55
2023-01-29T14:47:27.170Z,6.22
2023-01-29T14:50:03.175Z,7.60
2023-01-29T14:52:40.313Z,8.32
2023-01-29T14:55:19.026Z,12.43
2023-01-29T14:57:46.079Z,9.48
2023-01-29T15:00:22.014Z,11.45
2023-01-29T15:03:01.333Z,9.77
2023-01-29T15:05:37.241Z,9.32
2023-01-29T15:08:32.169Z,8.43
2023-01-29T15:11:25.609Z,8.43
2023-01-29T15:14:13.948Z,12.48
2023-01-29T15:16:46.174Z,11.13
2023-01-29T15:19:26.239Z,13.60
2023-01-29T15:22:25.940Z,12.07
2023-01-29T15:25:15.318Z,11.73
2023-01-29T15:27:46.091Z,9.20
2023-01-29T15:30:18.977Z,11.30
2023-01-29T15:32:48.017Z,8.13
2023-01-29T15:36:06.301Z,6.30
2023-01-29T15:38:34.109Z,9.90
2023-01-29T15:41:03.609Z,8.88
2023-01-29T15:43:42.923Z,8.93
2023-01-29T15:46:37.537Z,12.93
2023-01-29T15:49:11.695Z,11.75
2023-01-29T15:51:38.929Z,10.27
2023-01-29T15:54:10.938Z,11.40
2023-01-29T15:56:51.160Z,10.40
2023-01-29T15:59:23.711Z,7.50
2023-01-29T16:01:50.555Z,11.52
2023-01-29T16:04:23.970Z,12.55
2023-01-29T16:06:53.751Z,8.73
2023-01-29T16:09:24.179Z,11.93
2023-01-29T16:11:53.302Z,11.18
2023-01-29T16:14:25.777Z,10.25
2023-01-29T16:16:53.036Z,11.55
2023-01-29T16:19:26.756Z,12.45
2023-01-29T16:22:05.928Z,13.93
2023-01-29T16:24:37.147Z,11.57
2023-01-29T16:27:14.923Z,19.27
2023-01-29T16:29:42.694Z,14.80
2023-01-29T16:32:12.368Z,9.13
2023-01-29T16:34:45.790Z,17.33
2023-01-29T16:37:32.388Z,13.10
2023-01-29T16:39:59.853Z,12.52
2023-01-29T16:42:31.424Z,15.40
2023-01-29T16:45:01.262Z,18.17
2023-01-29T16:47:38.583Z,22.48
2023-01-29T16:50:36.090Z,14.38
2023-01-29T16:53:23.312Z,11.77
2023-01-29T16:55:52.537Z,18.42
2023-01-29T16:58:21.978Z,16.90
2023-01-29T17:00:53.512Z,13.43
2023-01-29T17:03:21.402Z,15.27
2023-01-29T17:05:48.852Z,11.73
2023-01-29T17:08:45.215Z,12.25
2023-01-29T17:11:22.944Z,16.27
2023-01-29T17:13:49.926Z,10.40
2023-01-29T17:16:32.417Z,12.68
2023-01-29T17:19:00.384Z,14.82
2023-01-29T17:21:30.135Z,14.60
2023-01-29T17:23:56.953Z,13.95
2023-01-29T17:26:24.861Z,12.65
2023-01-29T17:28:53.720Z,13.23
2023-01-29T17:31:20.937Z,11.63
2023-01-29T17:33:48.048Z,12.20
2023-01-29T17:36:17.033Z,17.77
2023-01-29T17:38:44.631Z,17.63
2023-01-29T17:41:25.672Z,11.18
2023-01-29T17:43:52.445Z,18.45
2023-01-29T17:46:20.092Z,22.65
2023-01-29T17:48:49.148Z,17.40
2023-01-29T17:51:17.884Z,12.25
2023-01-29T17:53:46.709Z,15.52
2023-01-29T17:56:21.381Z,15.75
2023-01-29T18:01:15.220Z,22.13
2023-01-29T18:03:42.113Z,16.23
2023-01-29T18:06:10.274Z,15.38
2023-01-29T18:08:39.600Z,20.85
2023-01-29T18:11:06.732Z,15.35
2023-01-29T18:13:36.107Z,20.88
2023-01-29T18:16:03.504Z,15.00
2023-01-29T18:18:30.280Z,16.50
2023-01-29T18:20:57.332Z,15.77
2023-01-29T18:23:24.141Z,18.85
2023-01-29T18:25:52.712Z,14.77
2023-01-29T18:28:19.608Z,18.75
2023-01-29T18:30:47.834Z,20.42
2023-01-29T18:33:16.320Z,17.10
2023-01-29T18:35:50.690Z,16.85
2023-01-29T18:38:17.816Z,16.65
2023-01-29T18:40:44.940Z,16.52
2023-01-29T18:43:11.753Z,14.45
2023-01-29T18:45:38.915Z,15.82
2023-01-29T18:48:05.962Z,23.48
2023-01-29T18:50:33.327Z,27.23
2023-01-29T18:53:00.384Z,19.50
2023-01-29T18:55:27.541Z,20.60
2023-01-29T18:58:26.332Z,16.10
2023-01-29T19:00:42.092Z,15.27
2023-01-29T19:03:10.065Z,14.27
2023-01-29T19:05:37.169Z,17.58
2023-01-29T19:08:05.359Z,19.33
2023-01-29T19:10:33.422Z,18.00
2023-01-29T19:13:00.692Z,18.08
2023-01-29T19:15:27.889Z,18.23
2023-01-29T19:17:55.006Z,13.75
2023-01-29T19:20:22.166Z,14.00
2023-01-29T19:22:48.993Z,16.83
2023-01-29T19:25:17.893Z,15.32
2023-01-29T19:27:46.012Z,14.38
2023-01-29T19:30:13.389Z,12.55
2023-01-29T19:32:41.069Z,19.10
2023-01-29T19:35:08.464Z,13.90
2023-01-29T19:37:35.311Z,16.63
2023-01-29T19:40:02.389Z,14.90
2023-01-29T19:42:29.381Z,17.83
2023-01-29T19:44:56.497Z,17.65
2023-01-29T19:47:23.348Z,20.65
2023-01-29T19:49:50.416Z,19.02
2023-01-29T19:52:49.904Z,18.02
2023-01-29T19:55:18.741Z,15.25
2023-01-29T19:57:45.954Z,17.05
2023-01-29T20:00:15.605Z,12.80
2023-01-29T20:02:42.504Z,17.05
2023-01-29T20:05:12.033Z,20.90
2023-01-29T20:07:42.553Z,15.57
2023-01-29T20:10:16.813Z,21.27
2023-01-29T20:12:47.555Z,16.65
2023-01-29T20:15:15.417Z,15.98
2023-01-29T20:17:42.377Z,15.73
2023-01-29T20:20:10.289Z,16.05
2023-01-29T20:22:37.104Z,17.90
2023-01-29T20:25:04.457Z,16.65
2023-01-29T20:27:31.285Z,17.55
2023-01-29T20:29:59.719Z,15.70
2023-01-29T20:32:26.640Z,15.75
2023-01-29T20:34:53.685Z,14.95
2023-01-29T20:37:20.543Z,16.80
2023-01-29T20:39:47.690Z,15.25
2023-01-29T20:42:14.596Z,15.40
2023-01-29T20:44:42.071Z,16.50
2023-01-29T20:47:09.196Z,16.90
2023-01-29T20:49:36.264Z,20.38
2023-01-29T20:52:03.240Z,14.90
2023-01-29T20:54:33.130Z,11.38
2023-01-29T20:57:00.329Z,14.55
2023-01-29T20:59:28.978Z,12.73
2023-01-29T21:01:56.049Z,20.00
2023-01-29T21:04:23.262Z,15.02
2023-01-29T21:06:50.080Z,16.55
2023-01-29T21:09:17.222Z,19.00
2023-01-29T21:11:45.132Z,19.52
2023-01-29T21:14:12.497Z,23.70
2023-01-29T21:16:40.082Z,18.88
2023-01-29T21:19:07.190Z,18.08
2023-01-29T21:21:34.671Z,24.77
2023-01-29T21:24:01.744Z,20.63
2023-01-29T21:26:28.660Z,18.67
2023-01-29T21:28:58.838Z,23.58
2023-01-29T21:31:25.731Z,17.20
2023-01-29T21:33:53.016Z,16.17
2023-01-29T21:36:19.769Z,19.67
2023-01-29T21:38:46.930Z,17.45
2023-01-29T21:41:13.692Z,20.58
2023-01-29T21:43:40.740Z,19.92
2023-01-29T21:46:15.574Z,19.25
2023-01-29T21:48:43.194Z,15.70
2023-01-29T21:51:09.943Z,20.27
2023-01-29T21:53:37.318Z,20.35
2023-01-29T21:56:05.669Z,24.80
2023-01-29T21:58:33.201Z,17.90
2023-01-29T22:01:35.748Z,17.80
2023-01-29T22:03:47.784Z,21.42
2023-01-29T22:06:15.315Z,19.00
2023-01-29T22:08:42.572Z,22.15
2023-01-29T22:11:10.184Z,13.00
2023-01-29T22:13:37.488Z,21.92
2023-01-29T22:16:05.967Z,18.80
2023-01-29T22:18:33.889Z,21.98
2023-01-29T22:21:04.428Z,18.05
2023-01-29T22:23:32.445Z,16.90
2023-01-29T22:26:03.824Z,21.58
2023-01-29T22:28:31.092Z,15.95
2023-01-29T22:31:02.168Z,21.40
2023-01-29T22:33:29.495Z,25.50
2023-01-29T22:35:56.931Z,18.60
2023-01-29T22:38:24.158Z,22.05
2023-01-29T22:40:51.849Z,26.92
2023-01-29T22:43:19.074Z,18.08
2023-01-29T22:45:45.956Z,23.48
2023-01-29T22:48:13.520Z,21.42
2023-01-29T22:50:40.899Z,24.00
2023-01-29T22:53:08.990Z,20.33
2023-01-29T22:55:35.753Z,20.42
2023-01-29T22:58:02.818Z,16.15
2023-01-29T23:00:29.564Z,19.83
2023-01-29T23:02:56.630Z,17.73
2023-01-29T23:05:23.457Z,15.50
2023-01-29T23:07:50.512Z,20.02
2023-01-29T23:10:17.673Z,21.05
2023-01-29T23:12:44.849Z,22.23
2023-01-29T23:15:11.693Z,21.25
2023-01-29T23:17:39.755Z,22.05
2023-01-29T23:20:07.256Z,19.48
2023-01-29T23:22:34.501Z,18.20
2023-01-29T23:25:02.810Z,17.65
2023-01-29T23:27:29.884Z,19.60
2023-01-29T23:29:56.758Z,22.05
2023-01-29T23:32:23.790Z,25.33
2023-01-29T23:34:50.578Z,23.52
2023-01-29T23:37:17.670Z,21.30
2023-01-29T23:39:44.451Z,17.92
2023-01-29T23:42:11.583Z,21.55
2023-01-29T23:44:40.177Z,19.48
2023-01-29T23:47:08.150Z,22.48
2023-01-29T23:49:35.094Z,20.75
2023-01-29T23:52:02.444Z,19.80
2023-01-29T23:54:29.392Z,21.73
2023-01-29T23:56:56.505Z,19.00
2023-01-29T23:59:23.303Z,19.27
